sensor_id;sensor_type;location;lat;lon;timestamp;pressure;altitude;pressure_sealevel;temperature;humidity
19761;BME280;10039;42.632;23.408;2023-02-02T00:01:27;95065.47;;;4.35;62.67
19761;BME280;10039;42.632;23.408;2023-02-02T00:03:53;95034.81;;;4.20;61.61
19761;BME280;10039;42.632;23.408;2023-02-02T00:06:22;95029.06;;;4.04;61.74
19761;BME280;10039;42.632;23.408;2023-02-02T00:08:50;95032.13;;;4.13;61.95
19761;BME280;10039;42.632;23.408;2023-02-02T00:11:17;95037.84;;;4.22;59.97
19761;BME280;10039;42.632;23.408;2023-02-02T00:13:43;95056.47;;;4.42;58.84
19761;BME280;10039;42.632;23.408;2023-02-02T00:18:58;95038.75;;;4.46;56.91
19761;BME280;10039;42.632;23.408;2023-02-02T00:21:24;95042.41;;;4.32;56.25
19761;BME280;10039;42.632;23.408;2023-02-02T00:23:53;95025.88;;;4.38;56.16
19761;BME280;10039;42.632;23.408;2023-02-02T00:26:19;95033.16;;;4.62;55.53
19761;BME280;10039;42.632;23.408;2023-02-02T00:28:45;95066.91;;;4.96;54.93
19761;BME280;10039;42.632;23.408;2023-02-02T00:31:11;95070.34;;;5.07;54.67
19761;BME280;10039;42.632;23.408;2023-02-02T00:33:37;95039.31;;;4.97;54.04
19761;BME280;10039;42.632;23.408;2023-02-02T00:36:03;95049.19;;;5.04;54.10
19761;BME280;10039;42.632;23.408;2023-02-02T00:38:30;95074.16;;;5.17;54.25
19761;BME280;10039;42.632;23.408;2023-02-02T00:40:55;95043.16;;;5.07;54.15
19761;BME280;10039;42.632;23.408;2023-02-02T00:43:22;95082.53;;;5.33;54.42
19761;BME280;10039;42.632;23.408;2023-02-02T00:45:48;95060.53;;;5.08;54.52
19761;BME280;10039;42.632;23.408;2023-02-02T00:48:14;95058.22;;;4.96;54.64
19761;BME280;10039;42.632;23.408;2023-02-02T00:50:40;95094.97;;;5.25;54.52
19761;BME280;10039;42.632;23.408;2023-02-02T00:53:06;95102.91;;;5.25;54.70
19761;BME280;10039;42.632;23.408;2023-02-02T00:55:32;95083.94;;;5.02;53.99
19761;BME280;10039;42.632;23.408;2023-02-02T00:57:58;95076.78;;;5.13;54.22
19761;BME280;10039;42.632;23.408;2023-02-02T01:00:25;95049.88;;;4.87;54.69
19761;BME280;10039;42.632;23.408;2023-02-02T01:02:52;95067.31;;;5.02;55.41
19761;BME280;10039;42.632;23.408;2023-02-02T01:05:19;95052.56;;;4.97;54.85
19761;BME280;10039;42.632;23.408;2023-02-02T01:07:45;95026.47;;;4.85;54.61
19761;BME280;10039;42.632;23.408;2023-02-02T01:10:14;95052.97;;;5.06;55.11
19761;BME280;10039;42.632;23.408;2023-02-02T01:12:41;95018.19;;;4.90;55.25
19761;BME280;10039;42.632;23.408;2023-02-02T01:15:08;95029.88;;;4.96;55.60
19761;BME280;10039;42.632;23.408;2023-02-02T01:17:36;95037.84;;;5.03;55.70
19761;BME280;10039;42.632;23.408;2023-02-02T01:20:02;95018.91;;;4.91;55.72
19761;BME280;10039;42.632;23.408;2023-02-02T01:22:28;95045.03;;;5.06;56.38
19761;BME280;10039;42.632;23.408;2023-02-02T01:24:54;95017.78;;;4.95;56.78
19761;BME280;10039;42.632;23.408;2023-02-02T01:27:21;95046.97;;;5.27;56.91
19761;BME280;10039;42.632;23.408;2023-02-02T01:29:47;95039.00;;;5.09;56.81
19761;BME280;10039;42.632;23.408;2023-02-02T01:32:13;95044.72;;;5.25;57.63
19761;BME280;10039;42.632;23.408;2023-02-02T01:34:39;95023.88;;;5.06;57.57
19761;BME280;10039;42.632;23.408;2023-02-02T01:37:07;95024.22;;;4.94;57.49
19761;BME280;10039;42.632;23.408;2023-02-02T01:39:32;95010.63;;;4.96;57.66
19761;BME280;10039;42.632;23.408;2023-02-02T01:41:58;95012.88;;;4.97;57.94
19761;BME280;10039;42.632;23.408;2023-02-02T01:47:31;95013.28;;;4.99;57.97
19761;BME280;10039;42.632;23.408;2023-02-02T01:49:58;95007.63;;;5.04;57.56
19761;BME280;10039;42.632;23.408;2023-02-02T01:52:26;95025.00;;;5.02;57.86
19761;BME280;10039;42.632;23.408;2023-02-02T01:54:58;94986.84;;;4.92;57.83
19761;BME280;10039;42.632;23.408;2023-02-02T01:57:30;95031.13;;;5.23;58.32
19761;BME280;10039;42.632;23.408;2023-02-02T02:00:02;94980.03;;;4.98;57.99
19761;BME280;10039;42.632;23.408;2023-02-02T02:02:29;95021.28;;;5.24;57.69
19761;BME280;10039;42.632;23.408;2023-02-02T02:04:58;94980.41;;;4.90;57.77
19761;BME280;10039;42.632;23.408;2023-02-02T02:07:26;95019.75;;;5.09;57.83
19761;BME280;10039;42.632;23.408;2023-02-02T02:09:51;94987.88;;;4.67;58.10
19761;BME280;10039;42.632;23.408;2023-02-02T02:12:19;95007.59;;;4.94;58.54
19761;BME280;10039;42.632;23.408;2023-02-02T02:14:49;95004.22;;;4.93;58.36
19761;BME280;10039;42.632;23.408;2023-02-02T02:17:50;95025.75;;;4.99;58.89
19761;BME280;10039;42.632;23.408;2023-02-02T02:23:55;95026.09;;;4.94;59.60
19761;BME280;10039;42.632;23.408;2023-02-02T02:35:25;95024.84;;;4.56;58.84
19761;BME280;10039;42.632;23.408;2023-02-02T02:38:00;95028.22;;;4.53;58.58
19761;BME280;10039;42.632;23.408;2023-02-02T02:43:15;94996.03;;;4.34;57.88
19761;BME280;10039;42.632;23.408;2023-02-02T02:45:44;95014.59;;;4.44;58.21
19761;BME280;10039;42.632;23.408;2023-02-02T02:48:12;94960.13;;;4.19;58.02
19761;BME280;10039;42.632;23.408;2023-02-02T02:50:38;95003.66;;;4.53;58.11
19761;BME280;10039;42.632;23.408;2023-02-02T02:53:12;95010.47;;;4.50;57.78
19761;BME280;10039;42.632;23.408;2023-02-02T02:59:16;95031.25;;;4.55;57.90
19761;BME280;10039;42.632;23.408;2023-02-02T03:01:58;95020.28;;;4.53;57.84
19761;BME280;10039;42.632;23.408;2023-02-02T03:04:45;95005.88;;;4.40;57.92
19761;BME280;10039;42.632;23.408;2023-02-02T03:07:26;95030.81;;;4.46;57.56
19761;BME280;10039;42.632;23.408;2023-02-02T03:10:03;94975.66;;;4.28;57.72
19761;BME280;10039;42.632;23.408;2023-02-02T03:12:32;94955.22;;;4.18;58.13
19761;BME280;10039;42.632;23.408;2023-02-02T03:14:58;94995.66;;;4.29;58.10
19761;BME280;10039;42.632;23.408;2023-02-02T03:17:28;94990.78;;;4.38;57.87
19761;BME280;10039;42.632;23.408;2023-02-02T03:19:56;94996.78;;;4.31;57.77
19761;BME280;10039;42.632;23.408;2023-02-02T03:22:22;94988.16;;;4.44;57.38
19761;BME280;10039;42.632;23.408;2023-02-02T03:24:48;95013.91;;;4.61;57.42
19761;BME280;10039;42.632;23.408;2023-02-02T03:27:14;94970.00;;;4.33;57.65
19761;BME280;10039;42.632;23.408;2023-02-02T03:29:40;95028.63;;;4.62;57.71
19761;BME280;10039;42.632;23.408;2023-02-02T03:32:07;94999.16;;;4.57;57.73
19761;BME280;10039;42.632;23.408;2023-02-02T03:34:32;94967.03;;;4.41;57.81
19761;BME280;10039;42.632;23.408;2023-02-02T03:36:58;94973.41;;;4.30;57.81
19761;BME280;10039;42.632;23.408;2023-02-02T03:39:24;95006.66;;;4.44;57.58
19761;BME280;10039;42.632;23.408;2023-02-02T03:41:50;95004.41;;;4.43;58.23
19761;BME280;10039;42.632;23.408;2023-02-02T03:44:16;94990.78;;;4.38;58.47
19761;BME280;10039;42.632;23.408;2023-02-02T03:46:43;94988.44;;;4.22;58.16
19761;BME280;10039;42.632;23.408;2023-02-02T03:49:09;95002.16;;;4.48;57.89
19761;BME280;10039;42.632;23.408;2023-02-02T03:51:36;95009.69;;;4.46;58.37
19761;BME280;10039;42.632;23.408;2023-02-02T03:54:05;94993.69;;;4.19;59.33
19761;BME280;10039;42.632;23.408;2023-02-02T03:56:32;94979.34;;;4.16;59.12
19761;BME280;10039;42.632;23.408;2023-02-02T03:58:59;94999.75;;;4.23;59.51
19761;BME280;10039;42.632;23.408;2023-02-02T04:01:27;95022.81;;;4.33;59.61
19761;BME280;10039;42.632;23.408;2023-02-02T04:03:54;94984.31;;;4.25;60.35
19761;BME280;10039;42.632;23.408;2023-02-02T04:06:21;95012.56;;;4.21;60.73
19761;BME280;10039;42.632;23.408;2023-02-02T04:08:49;95050.72;;;4.27;61.14
19761;BME280;10039;42.632;23.408;2023-02-02T04:11:18;95003.31;;;3.87;61.23
19761;BME280;10039;42.632;23.408;2023-02-02T04:13:46;95023.38;;;4.02;61.44
19761;BME280;10039;42.632;23.408;2023-02-02T04:16:11;95053.91;;;3.99;62.04
19761;BME280;10039;42.632;23.408;2023-02-02T04:18:37;94992.97;;;3.68;62.38
19761;BME280;10039;42.632;23.408;2023-02-02T04:21:05;95053.84;;;3.92;62.72
19761;BME280;10039;42.632;23.408;2023-02-02T04:23:32;95019.34;;;3.68;62.77
19761;BME280;10039;42.632;23.408;2023-02-02T04:25:58;94998.91;;;3.54;62.73
19761;BME280;10039;42.632;23.408;2023-02-02T04:28:24;95021.22;;;3.64;62.90
19761;BME280;10039;42.632;23.408;2023-02-02T04:30:51;95047.72;;;3.78;63.23
19761;BME280;10039;42.632;23.408;2023-02-02T04:33:19;95018.84;;;3.48;63.28
19761;BME280;10039;42.632;23.408;2023-02-02T04:35:47;94997.59;;;3.31;63.59
19761;BME280;10039;42.632;23.408;2023-02-02T04:38:16;95012.41;;;3.46;63.50
19761;BME280;10039;42.632;23.408;2023-02-02T04:40:45;95066.84;;;3.68;63.64
19761;BME280;10039;42.632;23.408;2023-02-02T04:43:14;95038.13;;;3.56;63.72
19761;BME280;10039;42.632;23.408;2023-02-02T04:45:45;95030.75;;;3.32;64.21
19761;BME280;10039;42.632;23.408;2023-02-02T04:48:16;95053.81;;;3.42;64.48
19761;BME280;10039;42.632;23.408;2023-02-02T04:53:37;95038.00;;;3.06;64.68
19761;BME280;10039;42.632;23.408;2023-02-02T04:56:17;95035.19;;;2.88;64.88
19761;BME280;10039;42.632;23.408;2023-02-02T04:58:53;95006.81;;;2.75;65.14
19761;BME280;10039;42.632;23.408;2023-02-02T05:01:26;95067.28;;;2.97;65.73
19761;BME280;10039;42.632;23.408;2023-02-02T05:03:59;95014.81;;;2.52;65.61
19761;BME280;10039;42.632;23.408;2023-02-02T05:06:29;95003.16;;;2.24;66.05
19761;BME280;10039;42.632;23.408;2023-02-02T05:09:08;95028.19;;;2.40;66.12
19761;BME280;10039;42.632;23.408;2023-02-02T05:11:36;95048.41;;;2.33;65.88
19761;BME280;10039;42.632;23.408;2023-02-02T05:14:09;95030.34;;;2.31;66.43
19761;BME280;10039;42.632;23.408;2023-02-02T05:16:47;95066.63;;;2.74;65.95
19761;BME280;10039;42.632;23.408;2023-02-02T05:19:18;95001.16;;;2.43;65.74
19761;BME280;10039;42.632;23.408;2023-02-02T05:21:50;95007.34;;;2.58;65.14
19761;BME280;10039;42.632;23.408;2023-02-02T05:24:22;95039.16;;;2.75;64.77
19761;BME280;10039;42.632;23.408;2023-02-02T05:26:59;95036.06;;;2.66;63.84
19761;BME280;10039;42.632;23.408;2023-02-02T05:29:30;95013.56;;;2.43;64.86
19761;BME280;10039;42.632;23.408;2023-02-02T05:32:10;95015.03;;;2.40;65.57
19761;BME280;10039;42.632;23.408;2023-02-02T05:34:46;95034.06;;;2.56;65.23
19761;BME280;10039;42.632;23.408;2023-02-02T05:40:36;95058.72;;;2.74;65.22
19761;BME280;10039;42.632;23.408;2023-02-02T05:43:19;95090.72;;;2.76;65.45
19761;BME280;10039;42.632;23.408;2023-02-02T05:46:05;95079.09;;;2.77;66.22
19761;BME280;10039;42.632;23.408;2023-02-02T05:48:49;95061.50;;;2.55;65.83
19761;BME280;10039;42.632;23.408;2023-02-02T05:51:23;95083.94;;;2.75;65.89
19761;BME280;10039;42.632;23.408;2023-02-02T05:53:54;95043.66;;;2.42;65.85
19761;BME280;10039;42.632;23.408;2023-02-02T06:01:58;95061.09;;;2.53;66.04
19761;BME280;10039;42.632;23.408;2023-02-02T06:04:31;95058.47;;;2.53;66.19
19761;BME280;10039;42.632;23.408;2023-02-02T06:07:04;95047.13;;;2.49;66.17
19761;BME280;10039;42.632;23.408;2023-02-02T06:09:39;95042.25;;;2.51;65.97
19761;BME280;10039;42.632;23.408;2023-02-02T06:12:11;95039.53;;;2.44;65.80
19761;BME280;10039;42.632;23.408;2023-02-02T06:14:48;95088.19;;;2.83;66.19
19761;BME280;10039;42.632;23.408;2023-02-02T06:17:29;95066.03;;;2.55;65.93
19761;BME280;10039;42.632;23.408;2023-02-02T06:20:16;95098.06;;;2.60;66.63
19761;BME280;10039;42.632;23.408;2023-02-02T06:22:52;95088.06;;;2.73;66.69
19761;BME280;10039;42.632;23.408;2023-02-02T06:25:25;95093.44;;;2.80;66.37
19761;BME280;10039;42.632;23.408;2023-02-02T06:27:58;95083.19;;;2.75;66.38
19761;BME280;10039;42.632;23.408;2023-02-02T06:30:41;95094.44;;;3.01;66.27
19761;BME280;10039;42.632;23.408;2023-02-02T06:33:08;95101.81;;;2.89;66.04
19761;BME280;10039;42.632;23.408;2023-02-02T06:35:35;95104.91;;;2.94;66.34
19761;BME280;10039;42.632;23.408;2023-02-02T06:38:02;95129.38;;;3.28;65.69
19761;BME280;10039;42.632;23.408;2023-02-02T06:40:27;95096.00;;;3.06;65.28
19761;BME280;10039;42.632;23.408;2023-02-02T06:43:00;95116.47;;;3.19;65.59
19761;BME280;10039;42.632;23.408;2023-02-02T06:45:34;95102.00;;;3.06;65.56
19761;BME280;10039;42.632;23.408;2023-02-02T06:48:07;95120.00;;;3.30;66.17
19761;BME280;10039;42.632;23.408;2023-02-02T06:50:37;95102.81;;;3.10;65.62
19761;BME280;10039;42.632;23.408;2023-02-02T06:53:03;95126.00;;;3.27;65.62
19761;BME280;10039;42.632;23.408;2023-02-02T06:55:35;95125.09;;;3.16;65.51
19761;BME280;10039;42.632;23.408;2023-02-02T06:58:08;95116.56;;;3.26;65.53
19761;BME280;10039;42.632;23.408;2023-02-02T07:00:37;95151.53;;;3.56;65.53
19761;BME280;10039;42.632;23.408;2023-02-02T07:03:11;95117.19;;;3.16;65.26
19761;BME280;10039;42.632;23.408;2023-02-02T07:05:41;95155.81;;;3.34;66.22
19761;BME280;10039;42.632;23.408;2023-02-02T07:08:10;95127.06;;;3.23;66.03
19761;BME280;10039;42.632;23.408;2023-02-02T07:10:40;95094.66;;;3.22;65.63
19761;BME280;10039;42.632;23.408;2023-02-02T07:13:10;95135.47;;;3.35;65.43
19761;BME280;10039;42.632;23.408;2023-02-02T07:15:40;95109.88;;;3.35;65.65
19761;BME280;10039;42.632;23.408;2023-02-02T07:18:07;95100.13;;;3.39;65.28
19761;BME280;10039;42.632;23.408;2023-02-02T07:20:34;95130.53;;;3.63;65.12
19761;BME280;10039;42.632;23.408;2023-02-02T07:23:05;95135.09;;;3.69;65.03
19761;BME280;10039;42.632;23.408;2023-02-02T07:25:31;95108.72;;;3.69;64.91
19761;BME280;10039;42.632;23.408;2023-02-02T07:27:59;95144.31;;;3.86;64.48
19761;BME280;10039;42.632;23.408;2023-02-02T07:30:26;95129.56;;;3.81;64.71
19761;BME280;10039;42.632;23.408;2023-02-02T07:32:55;95101.50;;;3.63;64.64
19761;BME280;10039;42.632;23.408;2023-02-02T07:35:23;95121.66;;;3.85;64.37
19761;BME280;10039;42.632;23.408;2023-02-02T07:37:55;95174.72;;;4.13;64.24
19761;BME280;10039;42.632;23.408;2023-02-02T07:40:23;95139.19;;;4.07;64.21
19761;BME280;10039;42.632;23.408;2023-02-02T07:42:49;95129.31;;;3.97;64.11
19761;BME280;10039;42.632;23.408;2023-02-02T07:45:17;95118.78;;;4.00;64.13
19761;BME280;10039;42.632;23.408;2023-02-02T07:47:43;95115.03;;;4.05;63.98
19761;BME280;10039;42.632;23.408;2023-02-02T07:50:10;95114.38;;;4.15;63.93
19761;BME280;10039;42.632;23.408;2023-02-02T07:52:36;95112.06;;;4.10;63.75
19761;BME280;10039;42.632;23.408;2023-02-02T07:55:02;95096.63;;;4.12;63.93
19761;BME280;10039;42.632;23.408;2023-02-02T07:57:28;95095.63;;;4.34;63.58
19761;BME280;10039;42.632;23.408;2023-02-02T07:59:54;95100.28;;;4.54;63.91
19761;BME280;10039;42.632;23.408;2023-02-02T08:02:20;95086.69;;;4.45;63.87
19761;BME280;10039;42.632;23.408;2023-02-02T08:04:46;95079.16;;;4.50;64.00
19761;BME280;10039;42.632;23.408;2023-02-02T08:07:12;95079.53;;;4.52;63.75
19761;BME280;10039;42.632;23.408;2023-02-02T08:09:38;95103.50;;;4.87;63.24
19761;BME280;10039;42.632;23.408;2023-02-02T08:12:04;95050.56;;;4.73;63.13
19761;BME280;10039;42.632;23.408;2023-02-02T08:14:30;95072.19;;;4.96;62.89
19761;BME280;10039;42.632;23.408;2023-02-02T08:16:57;95088.88;;;5.18;62.26
19761;BME280;10039;42.632;23.408;2023-02-02T08:19:23;95066.63;;;5.29;62.20
19761;BME280;10039;42.632;23.408;2023-02-02T08:21:49;95092.78;;;5.48;61.72
19761;BME280;10039;42.632;23.408;2023-02-02T08:24:15;95065.91;;;5.49;60.66
19761;BME280;10039;42.632;23.408;2023-02-02T08:26:41;95090.91;;;5.66;59.90
19761;BME280;10039;42.632;23.408;2023-02-02T08:29:07;95061.78;;;5.66;60.58
19761;BME280;10039;42.632;23.408;2023-02-02T08:31:35;95063.69;;;5.69;58.69
19761;BME280;10039;42.632;23.408;2023-02-02T08:34:01;95058.00;;;5.67;60.05
19761;BME280;10039;42.632;23.408;2023-02-02T08:36:28;95075.00;;;5.59;59.89
19761;BME280;10039;42.632;23.408;2023-02-02T08:38:58;95047.41;;;5.60;60.59
19761;BME280;10039;42.632;23.408;2023-02-02T08:41:24;95081.88;;;5.77;59.95
19761;BME280;10039;42.632;23.408;2023-02-02T08:43:50;95037.97;;;5.69;60.51
19761;BME280;10039;42.632;23.408;2023-02-02T08:46:17;95056.94;;;5.89;59.45
19761;BME280;10039;42.632;23.408;2023-02-02T08:48:43;95070.91;;;6.10;59.87
19761;BME280;10039;42.632;23.408;2023-02-02T08:51:11;95073.94;;;6.09;59.09
19761;BME280;10039;42.632;23.408;2023-02-02T08:53:40;95030.47;;;5.89;59.25
19761;BME280;10039;42.632;23.408;2023-02-02T08:56:15;95033.47;;;5.80;59.19
19761;BME280;10039;42.632;23.408;2023-02-02T08:58:49;95022.84;;;5.70;59.07
19761;BME280;10039;42.632;23.408;2023-02-02T09:01:20;95018.72;;;5.79;59.49
19761;BME280;10039;42.632;23.408;2023-02-02T09:03:47;95040.28;;;5.78;58.45
19761;BME280;10039;42.632;23.408;2023-02-02T09:06:15;95026.25;;;5.70;58.31
19761;BME280;10039;42.632;23.408;2023-02-02T09:08:41;95064.50;;;6.04;59.63
19761;BME280;10039;42.632;23.408;2023-02-02T09:11:09;95062.97;;;6.14;57.74
19761;BME280;10039;42.632;23.408;2023-02-02T09:13:37;95066.00;;;6.09;59.20
19761;BME280;10039;42.632;23.408;2023-02-02T09:16:05;95042.53;;;5.90;58.64
19761;BME280;10039;42.632;23.408;2023-02-02T09:18:31;95050.13;;;5.98;58.44
19761;BME280;10039;42.632;23.408;2023-02-02T09:21:03;95048.59;;;6.18;58.39
19761;BME280;10039;42.632;23.408;2023-02-02T09:23:34;94994.50;;;5.91;57.56
19761;BME280;10039;42.632;23.408;2023-02-02T09:26:12;95027.03;;;5.92;57.68
19761;BME280;10039;42.632;23.408;2023-02-02T09:28:43;95016.44;;;5.99;58.03
19761;BME280;10039;42.632;23.408;2023-02-02T09:31:10;95030.06;;;6.01;58.00
19761;BME280;10039;42.632;23.408;2023-02-02T09:33:36;94996.75;;;5.93;58.28
19761;BME280;10039;42.632;23.408;2023-02-02T09:38:32;95026.63;;;6.21;58.17
19761;BME280;10039;42.632;23.408;2023-02-02T09:40:59;94995.22;;;6.20;57.90
19761;BME280;10039;42.632;23.408;2023-02-02T09:47:44;95008.41;;;6.48;57.90
19761;BME280;10039;42.632;23.408;2023-02-02T09:52:38;95031.09;;;6.56;58.02
19761;BME280;10039;42.632;23.408;2023-02-02T09:55:13;95026.50;;;6.73;58.26
19761;BME280;10039;42.632;23.408;2023-02-02T09:57:44;95007.94;;;6.73;56.42
19761;BME280;10039;42.632;23.408;2023-02-02T10:00:25;94964.81;;;6.56;57.47
19761;BME280;10039;42.632;23.408;2023-02-02T10:02:58;94991.28;;;6.69;57.13
19761;BME280;10039;42.632;23.408;2023-02-02T10:05:28;95012.03;;;6.88;57.59
19761;BME280;10039;42.632;23.408;2023-02-02T10:08:00;94963.25;;;6.68;58.35
19761;BME280;10039;42.632;23.408;2023-02-02T10:10:36;95012.00;;;6.95;57.51
19761;BME280;10039;42.632;23.408;2023-02-02T10:13:24;95008.06;;;7.24;57.51
19761;BME280;10039;42.632;23.408;2023-02-02T10:16:06;94999.22;;;7.45;56.07
19761;BME280;10039;42.632;23.408;2023-02-02T10:18:47;94991.28;;;7.41;55.95
19761;BME280;10039;42.632;23.408;2023-02-02T10:21:28;94982.09;;;7.49;54.96
19761;BME280;10039;42.632;23.408;2023-02-02T10:23:57;94975.72;;;7.40;54.28
19761;BME280;10039;42.632;23.408;2023-02-02T10:29:15;94971.13;;;7.51;55.14
19761;BME280;10039;42.632;23.408;2023-02-02T10:34:37;94966.03;;;7.67;54.91
19761;BME280;10039;42.632;23.408;2023-02-02T10:40:16;94957.41;;;7.99;54.16
19761;BME280;10039;42.632;23.408;2023-02-02T10:46:00;94890.84;;;7.76;52.33
19761;BME280;10039;42.632;23.408;2023-02-02T10:48:30;94924.75;;;8.02;51.00
19761;BME280;10039;42.632;23.408;2023-02-02T10:51:06;94914.00;;;8.13;49.89
19761;BME280;10039;42.632;23.408;2023-02-02T10:53:36;94875.03;;;8.03;50.78
19761;BME280;10039;42.632;23.408;2023-02-02T10:56:07;94905.34;;;8.42;50.63
19761;BME280;10039;42.632;23.408;2023-02-02T10:59:04;94896.88;;;8.51;49.98
19761;BME280;10039;42.632;23.408;2023-02-02T11:01:31;94900.66;;;8.53;49.10
19761;BME280;10039;42.632;23.408;2023-02-02T11:03:56;94871.19;;;8.41;48.85
19761;BME280;10039;42.632;23.408;2023-02-02T11:06:40;94851.94;;;8.30;48.61
19761;BME280;10039;42.632;23.408;2023-02-02T11:09:39;94878.25;;;8.51;47.55
19761;BME280;10039;42.632;23.408;2023-02-02T11:14:58;94887.38;;;8.80;47.10
19761;BME280;10039;42.632;23.408;2023-02-02T11:17:26;94855.69;;;8.62;45.71
19761;BME280;10039;42.632;23.408;2023-02-02T11:19:52;94848.88;;;8.61;46.20
19761;BME280;10039;42.632;23.408;2023-02-02T11:24:52;94846.56;;;8.63;45.38
19761;BME280;10039;42.632;23.408;2023-02-02T11:27:40;94861.53;;;8.80;45.96
19761;BME280;10039;42.632;23.408;2023-02-02T11:30:20;94871.16;;;8.97;46.36
19761;BME280;10039;42.632;23.408;2023-02-02T11:32:50;94808.97;;;8.61;45.93
19761;BME280;10039;42.632;23.408;2023-02-02T11:35:25;94826.44;;;8.88;46.22
19761;BME280;10039;42.632;23.408;2023-02-02T11:38:08;94837.84;;;8.89;45.40
19761;BME280;10039;42.632;23.408;2023-02-02T11:40:42;94814.25;;;8.91;45.38
19761;BME280;10039;42.632;23.408;2023-02-02T11:43:20;94857.16;;;9.19;44.76
19761;BME280;10039;42.632;23.408;2023-02-02T11:46:37;94824.59;;;9.08;45.37
19761;BME280;10039;42.632;23.408;2023-02-02T11:48:52;94835.84;;;9.19;44.69
19761;BME280;10039;42.632;23.408;2023-02-02T11:51:24;94799.28;;;9.00;44.19
19761;BME280;10039;42.632;23.408;2023-02-02T11:54:13;94825.56;;;9.21;44.43
19761;BME280;10039;42.632;23.408;2023-02-02T11:56:40;94839.09;;;9.30;43.62
19761;BME280;10039;42.632;23.408;2023-02-02T12:02:29;94820.06;;;9.32;43.15
19761;BME280;10039;42.632;23.408;2023-02-02T12:07:47;94782.59;;;9.19;42.12
19761;BME280;10039;42.632;23.408;2023-02-02T12:10:41;94763.47;;;9.05;41.77
19761;BME280;10039;42.632;23.408;2023-02-02T12:24:41;94797.03;;;9.64;42.98
19761;BME280;10039;42.632;23.408;2023-02-02T12:27:18;94798.41;;;9.72;42.48
19761;BME280;10039;42.632;23.408;2023-02-02T12:38:09;94808.41;;;9.45;44.50
19761;BME280;10039;42.632;23.408;2023-02-02T12:43:49;94769.75;;;9.14;43.97
19761;BME280;10039;42.632;23.408;2023-02-02T13:08:01;94765.69;;;8.61;44.09
19761;BME280;10039;42.632;23.408;2023-02-02T13:10:44;94763.09;;;8.57;44.21
19761;BME280;10039;42.632;23.408;2023-02-02T13:13:22;94781.91;;;8.70;44.36
19761;BME280;10039;42.632;23.408;2023-02-02T13:15:53;94772.09;;;8.63;44.52
19761;BME280;10039;42.632;23.408;2023-02-02T13:18:30;94797.53;;;8.64;44.15
19761;BME280;10039;42.632;23.408;2023-02-02T13:21:10;94783.84;;;8.66;43.43
19761;BME280;10039;42.632;23.408;2023-02-02T13:23:43;94770.66;;;8.59;44.28
19761;BME280;10039;42.632;23.408;2023-02-02T13:26:22;94761.50;;;8.60;43.94
19761;BME280;10039;42.632;23.408;2023-02-02T13:37:41;94809.56;;;8.98;44.73
19761;BME280;10039;42.632;23.408;2023-02-02T13:42:46;94806.09;;;9.01;43.99
19761;BME280;10039;42.632;23.408;2023-02-02T13:45:59;94793.72;;;8.91;43.02
19761;BME280;10039;42.632;23.408;2023-02-02T13:54:09;94807.34;;;8.71;43.86
19761;BME280;10039;42.632;23.408;2023-02-02T14:00:02;94816.06;;;8.71;44.03
19761;BME280;10039;42.632;23.408;2023-02-02T14:02:31;94805.41;;;8.71;44.07
19761;BME280;10039;42.632;23.408;2023-02-02T14:05:02;94813.91;;;8.63;43.55
19761;BME280;10039;42.632;23.408;2023-02-02T14:07:43;94788.91;;;8.57;44.19
19761;BME280;10039;42.632;23.408;2023-02-02T14:10:23;94771.59;;;8.45;45.28
19761;BME280;10039;42.632;23.408;2023-02-02T14:12:50;94781.47;;;8.45;46.01
19761;BME280;10039;42.632;23.408;2023-02-02T14:15:16;94749.28;;;8.39;46.63
19761;BME280;10039;42.632;23.408;2023-02-02T14:26:10;94755.13;;;8.54;46.65
19761;BME280;10039;42.632;23.408;2023-02-02T14:28:42;94743.66;;;8.60;46.03
19761;BME280;10039;42.632;23.408;2023-02-02T14:31:27;94787.84;;;8.77;45.90
19761;BME280;10039;42.632;23.408;2023-02-02T14:39:41;94758.38;;;8.12;47.31
19761;BME280;10039;42.632;23.408;2023-02-02T14:50:19;94836.97;;;7.76;51.75
19761;BME280;10039;42.632;23.408;2023-02-02T14:53:00;94903.75;;;7.74;54.55
19761;BME280;10039;42.632;23.408;2023-02-02T14:55:28;94909.19;;;7.17;60.64
19761;BME280;10039;42.632;23.408;2023-02-02T14:58:03;94931.78;;;6.77;64.61
19761;BME280;10039;42.632;23.408;2023-02-02T15:01:02;94919.94;;;6.07;69.05
19761;BME280;10039;42.632;23.408;2023-02-02T15:52:44;95080.56;;;4.38;77.48
19761;BME280;10039;42.632;23.408;2023-02-02T16:04:32;95074.75;;;4.11;76.75
19761;BME280;10039;42.632;23.408;2023-02-02T16:09:48;95100.25;;;3.93;77.97
19761;BME280;10039;42.632;23.408;2023-02-02T16:12:30;95088.94;;;3.93;77.36
19761;BME280;10039;42.632;23.408;2023-02-02T16:18:18;95087.13;;;4.04;77.77
19761;BME280;10039;42.632;23.408;2023-02-02T16:21:19;95112.78;;;4.07;77.40
19761;BME280;10039;42.632;23.408;2023-02-02T16:29:10;95157.34;;;4.12;77.54
19761;BME280;10039;42.632;23.408;2023-02-02T16:31:49;95185.91;;;4.03;77.46
19761;BME280;10039;42.632;23.408;2023-02-02T16:50:28;95128.13;;;3.91;77.69
19761;BME280;10039;42.632;23.408;2023-02-02T16:56:47;95121.22;;;4.23;75.99
19761;BME280;10039;42.632;23.408;2023-02-02T16:59:22;95146.50;;;4.74;74.57
19761;BME280;10039;42.632;23.408;2023-02-02T17:01:59;95135.88;;;4.70;74.27
19761;BME280;10039;42.632;23.408;2023-02-02T17:04:38;95142.28;;;4.69;73.93
19761;BME280;10039;42.632;23.408;2023-02-02T17:10:00;95120.50;;;4.26;75.23
19761;BME280;10039;42.632;23.408;2023-02-02T17:12:40;95163.81;;;4.68;74.42
19761;BME280;10039;42.632;23.408;2023-02-02T17:23:34;95152.22;;;4.29;75.42
19761;BME280;10039;42.632;23.408;2023-02-02T18:40:29;95177.09;;;3.48;71.56
19761;BME280;10039;42.632;23.408;2023-02-02T19:24:38;95213.59;;;4.16;69.85
19761;BME280;10039;42.632;23.408;2023-02-02T19:30:15;95209.59;;;4.32;68.89
19761;BME280;10039;42.632;23.408;2023-02-02T19:35:56;95180.53;;;3.92;69.56
19761;BME280;10039;42.632;23.408;2023-02-02T19:54:48;95222.16;;;4.06;69.02
19761;BME280;10039;42.632;23.408;2023-02-02T19:57:39;95228.53;;;4.01;68.72